sensor_id;sensor_type;location;lat;lon;timestamp;pressure;altitude;pressure_sealevel;temperature;humidity
31082;BME280;17737;52.586;13.284;2023-02-03T00:01:41;101662.09;;;2.28;82.94
31082;BME280;17737;52.586;13.284;2023-02-03T00:04:09;101654.13;;;2.28;83.25
31082;BME280;17737;52.586;13.284;2023-02-03T00:06:37;101650.22;;;2.33;83.18
31082;BME280;17737;52.586;13.284;2023-02-03T00:09:05;101650.50;;;2.29;83.94
31082;BME280;17737;52.586;13.284;2023-02-03T00:11:34;101648.88;;;2.26;84.59
31082;BME280;17737;52.586;13.284;2023-02-03T00:14:02;101639.69;;;2.18;85.14
31082;BME280;17737;52.586;13.284;2023-02-03T00:16:33;101632.19;;;2.24;85.90
31082;BME280;17737;52.586;13.284;2023-02-03T00:19:02;101618.78;;;2.26;86.30
31082;BME280;17737;52.586;13.284;2023-02-03T00:21:30;101609.75;;;2.28;86.71
31082;BME280;17737;52.586;13.284;2023-02-03T00:23:58;101600.75;;;2.31;87.02
31082;BME280;17737;52.586;13.284;2023-02-03T00:26:27;101593.44;;;2.34;87.73
31082;BME280;17737;52.586;13.284;2023-02-03T00:28:55;101585.16;;;2.39;87.68
31082;BME280;17737;52.586;13.284;2023-02-03T00:31:25;101580.41;;;2.44;88.45
31082;BME280;17737;52.586;13.284;2023-02-03T00:33:54;101570.81;;;2.41;88.61
31082;BME280;17737;52.586;13.284;2023-02-03T00:36:25;101567.41;;;2.39;88.94
31082;BME280;17737;52.586;13.284;2023-02-03T00:38:53;101557.34;;;2.44;89.28
31082;BME280;17737;52.586;13.284;2023-02-03T00:41:21;101549.34;;;2.44;89.25
31082;BME280;17737;52.586;13.284;2023-02-03T00:43:50;101538.63;;;2.46;89.46
31082;BME280;17737;52.586;13.284;2023-02-03T00:46:18;101542.78;;;2.50;90.09
31082;BME280;17737;52.586;13.284;2023-02-03T00:48:46;101542.78;;;2.50;89.65
31082;BME280;17737;52.586;13.284;2023-02-03T00:51:14;101553.44;;;2.50;89.89
31082;BME280;17737;52.586;13.284;2023-02-03T00:53:43;101546.28;;;2.51;90.08
31082;BME280;17737;52.586;13.284;2023-02-03T00:56:11;101553.44;;;2.50;90.67
31082;BME280;17737;52.586;13.284;2023-02-03T00:58:40;101538.63;;;2.46;90.81
31082;BME280;17737;52.586;13.284;2023-02-03T01:01:08;101537.75;;;2.45;91.04
31082;BME280;17737;52.586;13.284;2023-02-03T01:03:37;101530.44;;;2.49;91.21
31082;BME280;17737;52.586;13.284;2023-02-03T01:06:07;101528.53;;;2.51;91.49
31082;BME280;17737;52.586;13.284;2023-02-03T01:08:36;101520.19;;;2.57;91.74
31082;BME280;17737;52.586;13.284;2023-02-03T01:11:10;101522.19;;;2.54;91.24
31082;BME280;17737;52.586;13.284;2023-02-03T01:13:39;101519.59;;;2.52;91.73
31082;BME280;17737;52.586;13.284;2023-02-03T01:16:07;101515.44;;;2.48;91.88
31082;BME280;17737;52.586;13.284;2023-02-03T01:18:36;101509.47;;;2.44;91.88
31082;BME280;17737;52.586;13.284;2023-02-03T01:21:06;101497.97;;;2.44;91.42
31082;BME280;17737;52.586;13.284;2023-02-03T01:23:36;101498.06;;;2.42;91.77
31082;BME280;17737;52.586;13.284;2023-02-03T01:26:08;101504.44;;;2.40;92.03
31082;BME280;17737;52.586;13.284;2023-02-03T01:28:39;101492.94;;;2.39;92.03
31082;BME280;17737;52.586;13.284;2023-02-03T01:31:09;101483.34;;;2.37;92.14
31082;BME280;17737;52.586;13.284;2023-02-03T01:33:39;101475.78;;;2.31;92.10
31082;BME280;17737;52.586;13.284;2023-02-03T01:36:08;101474.16;;;2.28;92.18
31082;BME280;17737;52.586;13.284;2023-02-03T01:38:37;101473.50;;;2.25;92.75
31082;BME280;17737;52.586;13.284;2023-02-03T01:41:08;101472.00;;;2.21;92.65
31082;BME280;17737;52.586;13.284;2023-02-03T01:43:40;101457.28;;;2.15;92.35
31082;BME280;17737;52.586;13.284;2023-02-03T01:46:21;101450.84;;;2.19;92.78
31082;BME280;17737;52.586;13.284;2023-02-03T01:48:55;101432.31;;;2.18;92.18
31082;BME280;17737;52.586;13.284;2023-02-03T01:51:31;101421.22;;;2.11;92.27
31082;BME280;17737;52.586;13.284;2023-02-03T01:54:00;101419.22;;;2.15;93.06
31082;BME280;17737;52.586;13.284;2023-02-03T01:56:31;101430.25;;;2.09;92.49
31082;BME280;17737;52.586;13.284;2023-02-03T01:59:03;101428.16;;;2.14;92.46
31082;BME280;17737;52.586;13.284;2023-02-03T02:01:32;101412.41;;;2.11;92.73
31082;BME280;17737;52.586;13.284;2023-02-03T02:04:03;101411.34;;;2.13;92.37
31082;BME280;17737;52.586;13.284;2023-02-03T02:06:33;101405.34;;;2.10;92.22
31082;BME280;17737;52.586;13.284;2023-02-03T02:09:01;101393.25;;;2.06;92.18
31082;BME280;17737;52.586;13.284;2023-02-03T02:11:31;101382.19;;;2.12;92.69
31082;BME280;17737;52.586;13.284;2023-02-03T02:14:01;101373.47;;;2.10;92.40
31082;BME280;17737;52.586;13.284;2023-02-03T02:16:37;101363.50;;;2.13;92.76
31082;BME280;17737;52.586;13.284;2023-02-03T02:19:40;101359.25;;;2.11;92.80
31082;BME280;17737;52.586;13.284;2023-02-03T02:22:26;101346.59;;;2.14;93.08
31082;BME280;17737;52.586;13.284;2023-02-03T02:28:52;101322.03;;;2.11;92.92
31082;BME280;17737;52.586;13.284;2023-02-03T02:31:56;101312.84;;;2.02;92.52
31082;BME280;17737;52.586;13.284;2023-02-03T02:34:41;101296.03;;;2.02;93.01
31082;BME280;17737;52.586;13.284;2023-02-03T02:37:23;101285.53;;;2.00;92.97
31082;BME280;17737;52.586;13.284;2023-02-03T02:40:06;101284.75;;;1.98;93.36
31082;BME280;17737;52.586;13.284;2023-02-03T02:42:53;101268.28;;;1.93;93.39
31082;BME280;17737;52.586;13.284;2023-02-03T02:45:29;101266.28;;;1.97;93.34
31082;BME280;17737;52.586;13.284;2023-02-03T02:48:09;101264.53;;;1.96;93.67
31082;BME280;17737;52.586;13.284;2023-02-03T02:50:46;101250.00;;;2.01;93.76
31082;BME280;17737;52.586;13.284;2023-02-03T02:53:20;101239.91;;;2.06;93.38
31082;BME280;17737;52.586;13.284;2023-02-03T02:55:52;101243.22;;;2.10;93.02
31082;BME280;17737;52.586;13.284;2023-02-03T02:58:26;101237.38;;;2.05;93.21
31082;BME280;17737;52.586;13.284;2023-02-03T03:00:55;101231.41;;;2.01;93.50
31082;BME280;17737;52.586;13.284;2023-02-03T03:03:26;101226.75;;;2.05;93.99
31082;BME280;17737;52.586;13.284;2023-02-03T03:05:56;101213.44;;;2.05;93.94
31082;BME280;17737;52.586;13.284;2023-02-03T03:08:31;101214.75;;;2.12;93.66
31082;BME280;17737;52.586;13.284;2023-02-03T03:11:04;101214.75;;;2.12;93.89
31082;BME280;17737;52.586;13.284;2023-02-03T03:13:36;101212.41;;;2.07;93.91
31082;BME280;17737;52.586;13.284;2023-02-03T03:16:09;101199.94;;;2.08;93.81
31082;BME280;17737;52.586;13.284;2023-02-03T03:18:44;101185.72;;;2.09;93.96
31082;BME280;17737;52.586;13.284;2023-02-03T03:21:20;101177.84;;;2.07;94.26
31082;BME280;17737;52.586;13.284;2023-02-03T03:23:53;101172.22;;;2.12;94.20
31082;BME280;17737;52.586;13.284;2023-02-03T03:26:29;101159.56;;;2.15;94.33
31082;BME280;17737;52.586;13.284;2023-02-03T03:29:07;101160.63;;;2.13;93.87
31082;BME280;17737;52.586;13.284;2023-02-03T03:31:41;101157.88;;;2.14;94.61
31082;BME280;17737;52.586;13.284;2023-02-03T03:34:12;101143.72;;;2.14;94.79
31082;BME280;17737;52.586;13.284;2023-02-03T03:36:44;101139.69;;;2.21;94.88
31082;BME280;17737;52.586;13.284;2023-02-03T03:39:21;101145.66;;;2.24;94.22
31082;BME280;17737;52.586;13.284;2023-02-03T03:41:59;101150.34;;;2.21;94.55
31082;BME280;17737;52.586;13.284;2023-02-03T03:44:38;101138.72;;;2.22;94.47
31082;BME280;17737;52.586;13.284;2023-02-03T03:47:15;101138.72;;;2.22;94.51
31082;BME280;17737;52.586;13.284;2023-02-03T03:49:52;101143.94;;;2.23;94.21
31082;BME280;17737;52.586;13.284;2023-02-03T03:52:26;101147.34;;;2.25;94.57
31082;BME280;17737;52.586;13.284;2023-02-03T03:55:01;101133.44;;;2.34;93.90
31082;BME280;17737;52.586;13.284;2023-02-03T03:57:35;101121.81;;;2.35;94.30
31082;BME280;17737;52.586;13.284;2023-02-03T04:00:08;101124.91;;;2.42;94.54
31082;BME280;17737;52.586;13.284;2023-02-03T04:02:43;101152.25;;;2.44;94.24
31082;BME280;17737;52.586;13.284;2023-02-03T04:05:18;101132.53;;;2.59;94.09
31082;BME280;17737;52.586;13.284;2023-02-03T04:07:47;101115.94;;;2.56;93.93
31082;BME280;17737;52.586;13.284;2023-02-03T04:10:22;101105.13;;;2.46;94.04
31082;BME280;17737;52.586;13.284;2023-02-03T04:12:57;101100.44;;;2.50;94.73
31082;BME280;17737;52.586;13.284;2023-02-03T04:15:25;101094.47;;;2.59;94.46
31082;BME280;17737;52.586;13.284;2023-02-03T04:17:53;101072.00;;;2.63;94.04
31082;BME280;17737;52.586;13.284;2023-02-03T04:20:23;101062.75;;;2.56;94.20
31082;BME280;17737;52.586;13.284;2023-02-03T04:22:52;101064.25;;;2.60;94.72
31082;BME280;17737;52.586;13.284;2023-02-03T04:25:20;101055.91;;;2.64;94.88
31082;BME280;17737;52.586;13.284;2023-02-03T04:27:48;101055.78;;;2.78;95.07
31082;BME280;17737;52.586;13.284;2023-02-03T04:30:17;101043.97;;;2.82;94.92
31082;BME280;17737;52.586;13.284;2023-02-03T04:32:45;101043.50;;;2.88;95.11
31082;BME280;17737;52.586;13.284;2023-02-03T04:35:14;101039.09;;;3.00;95.39
31082;BME280;17737;52.586;13.284;2023-02-03T04:37:44;101027.03;;;3.07;95.22
31082;BME280;17737;52.586;13.284;2023-02-03T04:40:13;101027.66;;;3.10;95.36
31082;BME280;17737;52.586;13.284;2023-02-03T04:42:41;101034.22;;;3.17;94.91
31082;BME280;17737;52.586;13.284;2023-02-03T04:45:10;101021.28;;;3.24;95.12
31082;BME280;17737;52.586;13.284;2023-02-03T04:47:39;101011.88;;;3.31;95.00
31082;BME280;17737;52.586;13.284;2023-02-03T04:50:07;101004.06;;;3.40;95.36
31082;BME280;17737;52.586;13.284;2023-02-03T04:52:36;100993.41;;;3.40;95.55
31082;BME280;17737;52.586;13.284;2023-02-03T04:55:07;100994.63;;;3.47;95.57
31082;BME280;17737;52.586;13.284;2023-02-03T04:57:35;100988.59;;;3.56;95.74
31082;BME280;17737;52.586;13.284;2023-02-03T05:00:04;100984.25;;;3.66;95.75
31082;BME280;17737;52.586;13.284;2023-02-03T05:02:32;100979.28;;;3.73;95.60
31082;BME280;17737;52.586;13.284;2023-02-03T05:05:00;100976.91;;;3.81;95.86
31082;BME280;17737;52.586;13.284;2023-02-03T05:07:28;100982.09;;;3.94;95.77
31082;BME280;17737;52.586;13.284;2023-02-03T05:09:56;100975.78;;;4.06;95.79
31082;BME280;17737;52.586;13.284;2023-02-03T05:12:25;100966.84;;;4.07;95.48
31082;BME280;17737;52.586;13.284;2023-02-03T05:14:53;100968.78;;;4.05;95.82
31082;BME280;17737;52.586;13.284;2023-02-03T05:17:21;100953.75;;;4.15;95.75
31082;BME280;17737;52.586;13.284;2023-02-03T05:19:49;100962.47;;;4.17;95.87
31082;BME280;17737;52.586;13.284;2023-02-03T05:22:17;100957.50;;;4.23;96.15
31082;BME280;17737;52.586;13.284;2023-02-03T05:24:45;100946.44;;;4.39;95.82
31082;BME280;17737;52.586;13.284;2023-02-03T05:27:13;100950.06;;;4.38;95.76
31082;BME280;17737;52.586;13.284;2023-02-03T05:29:42;100947.16;;;4.41;96.19
31082;BME280;17737;52.586;13.284;2023-02-03T05:32:10;100939.72;;;4.55;95.99
31082;BME280;17737;52.586;13.284;2023-02-03T05:34:38;100935.47;;;4.64;95.73
31082;BME280;17737;52.586;13.284;2023-02-03T05:37:07;100927.66;;;4.72;95.75
31082;BME280;17737;52.586;13.284;2023-02-03T05:39:35;100922.66;;;4.78;95.60
31082;BME280;17737;52.586;13.284;2023-02-03T05:42:04;100917.09;;;4.81;95.51
31082;BME280;17737;52.586;13.284;2023-02-03T05:44:31;100914.47;;;4.91;95.30
31082;BME280;17737;52.586;13.284;2023-02-03T05:47:00;100901.19;;;5.01;95.41
31082;BME280;17737;52.586;13.284;2023-02-03T05:49:28;100899.13;;;5.04;95.59
31082;BME280;17737;52.586;13.284;2023-02-03T05:51:56;100894.22;;;5.09;95.13
31082;BME280;17737;52.586;13.284;2023-02-03T05:54:24;100894.22;;;5.09;95.44
31082;BME280;17737;52.586;13.284;2023-02-03T05:56:52;100892.59;;;5.18;94.90
31082;BME280;17737;52.586;13.284;2023-02-03T05:59:20;100881.88;;;5.29;95.39
31082;BME280;17737;52.586;13.284;2023-02-03T06:01:48;100874.16;;;5.35;94.94
31082;BME280;17737;52.586;13.284;2023-02-03T06:04:18;100867.00;;;5.36;95.29
31082;BME280;17737;52.586;13.284;2023-02-03T06:06:46;100861.25;;;5.40;95.12
31082;BME280;17737;52.586;13.284;2023-02-03T06:09:14;100858.44;;;5.42;95.29
31082;BME280;17737;52.586;13.284;2023-02-03T06:11:42;100841.31;;;5.44;95.68
31082;BME280;17737;52.586;13.284;2023-02-03T06:14:10;100844.31;;;5.51;95.40
31082;BME280;17737;52.586;13.284;2023-02-03T06:16:37;100844.16;;;5.52;95.34
31082;BME280;17737;52.586;13.284;2023-02-03T06:19:06;100839.94;;;5.50;95.38
31082;BME280;17737;52.586;13.284;2023-02-03T06:21:35;100835.16;;;5.53;95.39
31082;BME280;17737;52.586;13.284;2023-02-03T06:24:03;100841.28;;;5.65;95.99
31082;BME280;17737;52.586;13.284;2023-02-03T06:26:32;100837.59;;;5.56;95.19
31082;BME280;17737;52.586;13.284;2023-02-03T06:29:00;100839.00;;;5.60;95.50
31082;BME280;17737;52.586;13.284;2023-02-03T06:31:28;100826.06;;;5.65;95.93
31082;BME280;17737;52.586;13.284;2023-02-03T06:33:56;100843.94;;;5.65;95.64
31082;BME280;17737;52.586;13.284;2023-02-03T06:36:25;100830.88;;;5.71;95.28
31082;BME280;17737;52.586;13.284;2023-02-03T06:38:54;100828.78;;;5.75;95.80
31082;BME280;17737;52.586;13.284;2023-02-03T06:41:22;100829.88;;;5.72;95.53
31082;BME280;17737;52.586;13.284;2023-02-03T06:43:54;100823.75;;;5.81;95.15
31082;BME280;17737;52.586;13.284;2023-02-03T06:46:21;100812.78;;;5.84;95.68
31082;BME280;17737;52.586;13.284;2023-02-03T06:48:53;100804.06;;;5.82;94.95
31082;BME280;17737;52.586;13.284;2023-02-03T06:51:21;100810.69;;;5.88;95.36
31082;BME280;17737;52.586;13.284;2023-02-03T06:53:50;100802.25;;;5.92;94.85
31082;BME280;17737;52.586;13.284;2023-02-03T06:56:19;100804.69;;;5.95;95.20
31082;BME280;17737;52.586;13.284;2023-02-03T06:58:47;100787.91;;;5.93;94.98
31082;BME280;17737;52.586;13.284;2023-02-03T07:01:15;100790.03;;;5.99;95.19
31082;BME280;17737;52.586;13.284;2023-02-03T07:03:44;100779.34;;;5.99;95.26
31082;BME280;17737;52.586;13.284;2023-02-03T07:06:12;100776.41;;;6.02;94.92
31082;BME280;17737;52.586;13.284;2023-02-03T07:08:40;100760.94;;;6.06;95.33
31082;BME280;17737;52.586;13.284;2023-02-03T07:11:08;100760.50;;;6.11;94.77
31082;BME280;17737;52.586;13.284;2023-02-03T07:13:37;100758.81;;;6.19;94.92
31082;BME280;17737;52.586;13.284;2023-02-03T07:16:06;100751.50;;;6.31;94.90
31082;BME280;17737;52.586;13.284;2023-02-03T07:18:34;100745.84;;;6.34;94.80
31082;BME280;17737;52.586;13.284;2023-02-03T07:21:14;100748.53;;;6.43;93.94
31082;BME280;17737;52.586;13.284;2023-02-03T07:23:45;100743.88;;;6.36;94.70
31082;BME280;17737;52.586;13.284;2023-02-03T07:26:14;100725.28;;;6.44;94.57
31082;BME280;17737;52.586;13.284;2023-02-03T07:28:45;100723.88;;;6.49;94.24
31082;BME280;17737;52.586;13.284;2023-02-03T07:31:13;100730.63;;;6.44;93.83
31082;BME280;17737;52.586;13.284;2023-02-03T07:33:42;100712.75;;;6.54;94.04
31082;BME280;17737;52.586;13.284;2023-02-03T07:36:10;100716.84;;;6.39;94.05
31082;BME280;17737;52.586;13.284;2023-02-03T07:38:38;100710.34;;;6.32;95.31
31082;BME280;17737;52.586;13.284;2023-02-03T07:41:07;100709.94;;;6.36;95.47
31082;BME280;17737;52.586;13.284;2023-02-03T07:43:35;100702.22;;;6.33;94.90
31082;BME280;17737;52.586;13.284;2023-02-03T07:46:04;100697.44;;;6.37;95.39
31082;BME280;17737;52.586;13.284;2023-02-03T07:48:32;100678.41;;;6.40;95.03
31082;BME280;17737;52.586;13.284;2023-02-03T07:51:00;100684.59;;;6.31;95.40
31082;BME280;17737;52.586;13.284;2023-02-03T07:53:28;100681.06;;;6.40;95.45
31082;BME280;17737;52.586;13.284;2023-02-03T07:55:59;100680.22;;;6.39;94.98
31082;BME280;17737;52.586;13.284;2023-02-03T07:58:28;100678.69;;;6.37;95.04
31082;BME280;17737;52.586;13.284;2023-02-03T08:00:57;100678.81;;;6.35;95.45
31082;BME280;17737;52.586;13.284;2023-02-03T08:03:26;100672.03;;;6.41;95.52
31082;BME280;17737;52.586;13.284;2023-02-03T08:05:54;100663.16;;;6.40;95.54
31082;BME280;17737;52.586;13.284;2023-02-03T08:08:22;100658.53;;;6.42;94.85
31082;BME280;17737;52.586;13.284;2023-02-03T08:10:50;100654.47;;;6.38;95.48
31082;BME280;17737;52.586;13.284;2023-02-03T08:13:18;100646.28;;;6.40;95.33
31082;BME280;17737;52.586;13.284;2023-02-03T08:15:46;100619.09;;;6.44;95.61
31082;BME280;17737;52.586;13.284;2023-02-03T08:18:15;100627.25;;;6.43;95.61
31082;BME280;17737;52.586;13.284;2023-02-03T08:20:45;100634.59;;;6.41;95.70
31082;BME280;17737;52.586;13.284;2023-02-03T08:23:13;100637.66;;;6.46;95.62
31082;BME280;17737;52.586;13.284;2023-02-03T08:25:41;100633.31;;;6.45;95.31
31082;BME280;17737;52.586;13.284;2023-02-03T08:28:09;100625.84;;;6.48;95.53
31082;BME280;17737;52.586;13.284;2023-02-03T08:30:37;100620.34;;;6.50;94.75
31082;BME280;17737;52.586;13.284;2023-02-03T08:33:05;100620.19;;;6.51;95.26
31082;BME280;17737;52.586;13.284;2023-02-03T08:35:33;100615.13;;;6.48;95.39
31082;BME280;17737;52.586;13.284;2023-02-03T08:38:03;100612.00;;;6.53;94.94
31082;BME280;17737;52.586;13.284;2023-02-03T08:40:31;100609.78;;;6.48;95.39
31082;BME280;17737;52.586;13.284;2023-02-03T08:42:59;100608.06;;;6.47;95.08
31082;BME280;17737;52.586;13.284;2023-02-03T08:45:27;100605.13;;;6.50;95.36
31082;BME280;17737;52.586;13.284;2023-02-03T08:47:56;100596.09;;;6.51;95.01
31082;BME280;17737;52.586;13.284;2023-02-03T08:50:24;100588.94;;;6.52;95.61
31082;BME280;17737;52.586;13.284;2023-02-03T08:52:52;100575.25;;;6.55;95.37
31082;BME280;17737;52.586;13.284;2023-02-03T08:55:21;100579.19;;;6.51;95.76
31082;BME280;17737;52.586;13.284;2023-02-03T08:57:50;100578.78;;;6.55;95.42
31082;BME280;17737;52.586;13.284;2023-02-03T09:00:19;100573.28;;;6.57;95.79
31082;BME280;17737;52.586;13.284;2023-02-03T09:02:48;100577.06;;;6.54;95.43
31082;BME280;17737;52.586;13.284;2023-02-03T09:05:16;100570.75;;;6.55;95.57
31082;BME280;17737;52.586;13.284;2023-02-03T09:07:47;100567.63;;;6.60;95.92
31082;BME280;17737;52.586;13.284;2023-02-03T09:10:15;100565.63;;;6.62;95.55
31082;BME280;17737;52.586;13.284;2023-02-03T09:12:44;100555.03;;;6.70;95.33
31082;BME280;17737;52.586;13.284;2023-02-03T09:15:15;100556.69;;;6.71;94.79
31082;BME280;17737;52.586;13.284;2023-02-03T09:17:43;100555.56;;;6.73;95.12
31082;BME280;17737;52.586;13.284;2023-02-03T09:20:11;100541.16;;;6.84;94.08
31082;BME280;17737;52.586;13.284;2023-02-03T09:22:40;100543.84;;;6.84;94.39
31082;BME280;17737;52.586;13.284;2023-02-03T09:25:08;100542.81;;;6.85;95.17
31082;BME280;17737;52.586;13.284;2023-02-03T09:27:36;100537.94;;;6.80;95.14
31082;BME280;17737;52.586;13.284;2023-02-03T09:30:07;100541.16;;;6.84;94.83
31082;BME280;17737;52.586;13.284;2023-02-03T09:32:35;100534.38;;;6.89;94.70
31082;BME280;17737;52.586;13.284;2023-02-03T09:35:04;100537.47;;;6.85;94.59
31082;BME280;17737;52.586;13.284;2023-02-03T09:37:32;100531.13;;;6.86;94.78
31082;BME280;17737;52.586;13.284;2023-02-03T09:40:00;100522.56;;;6.82;95.33
31082;BME280;17737;52.586;13.284;2023-02-03T09:45:39;100521.59;;;7.01;94.62
31082;BME280;17737;52.586;13.284;2023-02-03T09:48:09;100508.34;;;6.99;94.66
31082;BME280;17737;52.586;13.284;2023-02-03T09:50:50;100492.69;;;7.04;94.24
31082;BME280;17737;52.586;13.284;2023-02-03T09:53:28;100501.25;;;7.08;94.45
31082;BME280;17737;52.586;13.284;2023-02-03T09:56:00;100485.78;;;7.02;94.46
31082;BME280;17737;52.586;13.284;2023-02-03T09:58:32;100475.81;;;7.12;93.73
31082;BME280;17737;52.586;13.284;2023-02-03T10:01:03;100464.81;;;7.15;93.61
31082;BME280;17737;52.586;13.284;2023-02-03T10:03:42;100464.81;;;7.15;93.72
31082;BME280;17737;52.586;13.284;2023-02-03T10:06:23;100449.13;;;7.20;93.43
31082;BME280;17737;52.586;13.284;2023-02-03T10:09:18;100442.53;;;7.32;92.62
31082;BME280;17737;52.586;13.284;2023-02-03T10:12:29;100450.56;;;7.32;92.91
31082;BME280;17737;52.586;13.284;2023-02-03T10:15:30;100445.66;;;7.45;92.22
31082;BME280;17737;52.586;13.284;2023-02-03T10:18:23;100424.56;;;7.50;91.67
31082;BME280;17737;52.586;13.284;2023-02-03T10:21:01;100433.47;;;7.51;91.68
31082;BME280;17737;52.586;13.284;2023-02-03T10:23:34;100435.13;;;7.52;91.64
31082;BME280;17737;52.586;13.284;2023-02-03T10:26:07;100433.84;;;7.56;91.45
31082;BME280;17737;52.586;13.284;2023-02-03T10:28:44;100449.44;;;7.60;91.13
31082;BME280;17737;52.586;13.284;2023-02-03T10:31:19;100477.25;;;7.59;91.66
31082;BME280;17737;52.586;13.284;2023-02-03T10:33:57;100504.84;;;7.52;92.94
31082;BME280;17737;52.586;13.284;2023-02-03T10:36:35;100491.38;;;7.26;95.54
31082;BME280;17737;52.586;13.284;2023-02-03T10:39:22;100530.47;;;7.19;95.91
31082;BME280;17737;52.586;13.284;2023-02-03T10:41:57;100555.09;;;7.05;95.25
31082;BME280;17737;52.586;13.284;2023-02-03T10:44:34;100528.94;;;6.99;95.69
31082;BME280;17737;52.586;13.284;2023-02-03T10:47:22;100552.91;;;6.73;93.69
31082;BME280;17737;52.586;13.284;2023-02-03T10:49:55;100539.56;;;6.64;93.08
31082;BME280;17737;52.586;13.284;2023-02-03T10:52:27;100526.19;;;6.64;91.74
31082;BME280;17737;52.586;13.284;2023-02-03T10:54:57;100539.97;;;6.69;89.97
31082;BME280;17737;52.586;13.284;2023-02-03T10:57:27;100524.88;;;6.68;86.28
31082;BME280;17737;52.586;13.284;2023-02-03T11:00:07;100512.09;;;6.62;85.41
31082;BME280;17737;52.586;13.284;2023-02-03T11:03:03;100527.16;;;6.63;85.14
31082;BME280;17737;52.586;13.284;2023-02-03T11:05:35;100523.00;;;6.51;85.85
31082;BME280;17737;52.586;13.284;2023-02-03T11:08:13;100504.41;;;6.49;86.11
31082;BME280;17737;52.586;13.284;2023-02-03T11:10:42;100507.16;;;6.57;84.35
31082;BME280;17737;52.586;13.284;2023-02-03T11:13:16;100518.88;;;6.56;84.34
31082;BME280;17737;52.586;13.284;2023-02-03T11:15:54;100508.50;;;6.71;83.30
31082;BME280;17737;52.586;13.284;2023-02-03T11:18:36;100491.47;;;6.72;83.24
31082;BME280;17737;52.586;13.284;2023-02-03T11:21:17;100490.47;;;6.73;82.52
31082;BME280;17737;52.586;13.284;2023-02-03T11:23:51;100518.94;;;6.74;82.75
31082;BME280;17737;52.586;13.284;2023-02-03T11:26:24;100503.16;;;6.71;83.19
31082;BME280;17737;52.586;13.284;2023-02-03T11:28:57;100484.88;;;6.66;83.19
31082;BME280;17737;52.586;13.284;2023-02-03T11:31:30;100489.09;;;6.69;82.65
31082;BME280;17737;52.586;13.284;2023-02-03T11:34:02;100503.13;;;6.80;81.76
31082;BME280;17737;52.586;13.284;2023-02-03T11:36:34;100517.13;;;6.92;81.42
31082;BME280;17737;52.586;13.284;2023-02-03T11:39:22;100508.63;;;6.96;81.51
31082;BME280;17737;52.586;13.284;2023-02-03T11:41:53;100535.16;;;7.17;82.10
31082;BME280;17737;52.586;13.284;2023-02-03T11:44:24;100516.78;;;7.22;80.73
31082;BME280;17737;52.586;13.284;2023-02-03T11:46:56;100499.41;;;7.26;80.07
31082;BME280;17737;52.586;13.284;2023-02-03T11:49:45;100524.38;;;7.26;80.11
31082;BME280;17737;52.586;13.284;2023-02-03T11:52:49;100503.84;;;7.35;79.60
31082;BME280;17737;52.586;13.284;2023-02-03T11:55:39;100511.28;;;7.41;78.19
31082;BME280;17737;52.586;13.284;2023-02-03T11:58:38;100514.03;;;7.32;77.60
31082;BME280;17737;52.586;13.284;2023-02-03T12:01:22;100524.13;;;7.38;77.15
31082;BME280;17737;52.586;13.284;2023-02-03T12:04:24;100523.38;;;7.45;76.64
31082;BME280;17737;52.586;13.284;2023-02-03T12:07:19;100521.13;;;7.58;76.42
31082;BME280;17737;52.586;13.284;2023-02-03T12:10:17;100519.28;;;7.76;76.00
31082;BME280;17737;52.586;13.284;2023-02-03T12:13:01;100534.09;;;7.88;76.10
31082;BME280;17737;52.586;13.284;2023-02-03T12:15:55;100525.56;;;7.85;74.64
31082;BME280;17737;52.586;13.284;2023-02-03T12:18:45;100528.84;;;7.79;74.83
31082;BME280;17737;52.586;13.284;2023-02-03T12:21:40;100519.50;;;7.83;74.88
31082;BME280;17737;52.586;13.284;2023-02-03T12:24:19;100513.34;;;7.90;74.46
31082;BME280;17737;52.586;13.284;2023-02-03T12:27:05;100504.25;;;7.83;73.67
31082;BME280;17737;52.586;13.284;2023-02-03T12:29:46;100521.53;;;8.06;71.67
31082;BME280;17737;52.586;13.284;2023-02-03T12:32:25;100510.06;;;7.96;70.88
31082;BME280;17737;52.586;13.284;2023-02-03T12:35:09;100512.47;;;8.07;70.63
31082;BME280;17737;52.586;13.284;2023-02-03T12:37:45;100522.16;;;8.26;70.01
31082;BME280;17737;52.586;13.284;2023-02-03T12:40:25;100493.16;;;8.29;68.91
31082;BME280;17737;52.586;13.284;2023-02-03T12:43:19;100526.06;;;8.31;69.23
31082;BME280;17737;52.586;13.284;2023-02-03T12:45:55;100529.19;;;8.01;70.53
31082;BME280;17737;52.586;13.284;2023-02-03T12:48:32;100526.19;;;7.61;73.21
31082;BME280;17737;52.586;13.284;2023-02-03T12:51:09;100602.63;;;7.30;75.91
31082;BME280;17737;52.586;13.284;2023-02-03T12:53:47;100638.13;;;6.41;81.80
31082;BME280;17737;52.586;13.284;2023-02-03T12:56:24;100651.31;;;5.38;87.45
31082;BME280;17737;52.586;13.284;2023-02-03T12:59:01;100662.31;;;5.05;88.62
31082;BME280;17737;52.586;13.284;2023-02-03T13:01:37;100650.31;;;4.89;88.24
31082;BME280;17737;52.586;13.284;2023-02-03T13:04:20;100645.69;;;4.92;89.76
31082;BME280;17737;52.586;13.284;2023-02-03T13:07:00;100646.56;;;5.02;88.37
31082;BME280;17737;52.586;13.284;2023-02-03T13:09:37;100652.06;;;5.00;88.83
31082;BME280;17737;52.586;13.284;2023-02-03T13:12:15;100676.91;;;5.01;89.05
31082;BME280;17737;52.586;13.284;2023-02-03T13:14:56;100671.63;;;5.10;87.93
31082;BME280;17737;52.586;13.284;2023-02-03T13:17:41;100654.16;;;5.06;87.07
31082;BME280;17737;52.586;13.284;2023-02-03T13:20:16;100682.75;;;5.15;87.07
31082;BME280;17737;52.586;13.284;2023-02-03T13:22:46;100665.03;;;5.14;87.17
31082;BME280;17737;52.586;13.284;2023-02-03T13:25:20;100647.72;;;5.09;88.56
31082;BME280;17737;52.586;13.284;2023-02-03T13:28:01;100656.13;;;5.04;88.41